createdAt,value
2022-10-15T00:00:48.223Z,1
2022-10-15T00:02:48.219Z,1
2022-10-15T00:04:48.612Z,1
2022-10-15T00:06:51.825Z,1
2022-10-15T00:08:47.439Z,1
2022-10-15T00:10:46.859Z,1
2022-10-15T00:12:51.785Z,1
2022-10-15T00:16:47.299Z,1
2022-10-15T00:18:49.179Z,1
2022-10-15T00:20:48.842Z,1
2022-10-15T00:22:50.228Z,1
2022-10-15T00:24:48.475Z,1
2022-10-15T00:26:51.610Z,1
2022-10-15T00:28:47.332Z,1
2022-10-15T00:30:48.870Z,1
2022-10-15T00:32:48.722Z,1
2022-10-15T00:34:53.450Z,1
2022-10-15T00:36:47.117Z,1
2022-10-15T00:38:51.970Z,1
2022-10-15T00:40:53.445Z,1
2022-10-15T00:42:47.296Z,1
2022-10-15T00:44:48.160Z,1
2022-10-15T00:46:48.625Z,1
2022-10-15T00:48:54.906Z,1
2022-10-15T00:50:46.966Z,1
2022-10-15T00:52:47.167Z,1
2022-10-15T00:54:48.844Z,1
2022-10-15T00:56:48.759Z,1
2022-10-15T00:58:53.831Z,1
2022-10-15T01:00:47.296Z,1
2022-10-15T01:02:47.408Z,1
2022-10-15T01:04:51.802Z,1
2022-10-15T01:06:48.773Z,1
2022-10-15T01:08:47.033Z,1
2022-10-15T01:10:52.021Z,1
2022-10-15T01:12:58.911Z,1
2022-10-15T01:14:54.886Z,1
2022-10-15T01:16:47.321Z,1
2022-10-15T01:18:47.285Z,1
2022-10-15T01:20:48.779Z,1
2022-10-15T01:22:48.065Z,1
2022-10-15T01:24:47.219Z,1
2022-10-15T01:26:52.357Z,1
2022-10-15T01:28:48.876Z,1
2022-10-15T01:30:50.607Z,1
2022-10-15T01:34:47.564Z,1
2022-10-15T01:36:49.028Z,1
2022-10-15T01:38:48.430Z,1
2022-10-15T01:40:48.908Z,1
2022-10-15T01:42:51.975Z,1
2022-10-15T01:44:49.052Z,1
2022-10-15T01:46:48.788Z,1
2022-10-15T01:48:47.140Z,1
2022-10-15T01:50:47.244Z,1
2022-10-15T01:52:48.084Z,1
2022-10-15T01:54:48.543Z,1
2022-10-15T01:56:48.003Z,1
2022-10-15T02:00:47.420Z,1
2022-10-15T02:02:47.088Z,1
2022-10-15T02:04:52.879Z,1
2022-10-15T02:06:47.354Z,1
2022-10-15T02:08:47.118Z,1
2022-10-15T02:10:48.526Z,1
2022-10-15T02:12:48.600Z,1
2022-10-15T02:14:51.847Z,1
2022-10-15T02:16:50.731Z,1
2022-10-15T02:18:47.143Z,1
2022-10-15T02:20:46.795Z,1
2022-10-15T02:22:48.166Z,1
2022-10-15T02:24:51.720Z,1
2022-10-15T02:26:52.128Z,1
2022-10-15T02:28:47.901Z,1
2022-10-15T02:30:48.677Z,1
2022-10-15T02:32:54.985Z,1
2022-10-15T02:34:51.845Z,1
2022-10-15T02:36:57.122Z,1
2022-10-15T02:38:47.436Z,1
2022-10-15T02:40:47.041Z,1
2022-10-15T02:42:47.100Z,1
2022-10-15T02:44:53.931Z,1
2022-10-15T02:46:47.314Z,1
2022-10-15T02:48:48.696Z,1
2022-10-15T02:50:53.339Z,1
2022-10-15T02:52:47.243Z,1
2022-10-15T02:54:47.229Z,1
2022-10-15T02:56:50.661Z,1
2022-10-15T02:58:50.275Z,1
2022-10-15T03:00:50.714Z,1
2022-10-15T03:02:47.229Z,1
2022-10-15T03:04:50.791Z,1
2022-10-15T03:06:50.830Z,1
2022-10-15T03:08:50.520Z,1
2022-10-15T03:10:49.313Z,1
2022-10-15T03:12:50.336Z,1
2022-10-15T03:14:47.125Z,1
2022-10-15T03:16:47.249Z,1
2022-10-15T03:18:55.143Z,1
2022-10-15T03:20:47.163Z,1
2022-10-15T03:22:47.432Z,1
2022-10-15T03:24:47.072Z,1
2022-10-15T03:26:47.482Z,1
2022-10-15T03:28:48.718Z,1
2022-10-15T03:30:47.952Z,1
2022-10-15T03:32:48.627Z,1
2022-10-15T03:34:48.055Z,1
2022-10-15T03:36:47.424Z,1
2022-10-15T03:38:51.906Z,1
2022-10-15T03:40:48.557Z,1
2022-10-15T03:42:47.410Z,1
2022-10-15T03:44:48.502Z,1
2022-10-15T03:46:52.109Z,1
2022-10-15T03:52:47.550Z,1
2022-10-15T03:54:47.221Z,1
2022-10-15T03:56:47.104Z,1
2022-10-15T03:58:50.806Z,1
2022-10-15T04:00:47.263Z,1
2022-10-15T04:02:48.713Z,1
2022-10-15T04:04:48.868Z,1
2022-10-15T04:06:54.270Z,1
2022-10-15T04:08:48.335Z,1
2022-10-15T04:10:52.332Z,1
2022-10-15T04:12:50.087Z,1
2022-10-15T04:14:50.876Z,1
2022-10-15T04:16:51.727Z,1
2022-10-15T04:18:51.623Z,1
2022-10-15T04:20:47.241Z,1
2022-10-15T04:22:51.075Z,1
2022-10-15T04:24:47.126Z,1
2022-10-15T04:26:47.375Z,1
2022-10-15T04:28:53.965Z,1
2022-10-15T04:30:48.512Z,1
2022-10-15T04:32:47.777Z,1
2022-10-15T04:34:49.926Z,1
2022-10-15T04:36:48.437Z,1
2022-10-15T04:38:51.027Z,1
2022-10-15T04:40:47.200Z,1
2022-10-15T04:42:45.278Z,1
2022-10-15T04:44:48.464Z,1
2022-10-15T04:46:52.031Z,1
2022-10-15T04:48:47.136Z,1
2022-10-15T04:50:51.781Z,1
2022-10-15T04:52:48.968Z,1
2022-10-15T04:54:55.059Z,1
2022-10-15T04:56:47.342Z,1
2022-10-15T04:58:51.293Z,0
2022-10-15T05:00:51.648Z,0
2022-10-15T05:02:52.150Z,0
2022-10-15T05:06:50.578Z,0.2
2022-10-15T05:08:47.192Z,0.3
2022-10-15T05:10:47.209Z,0.4
2022-10-15T05:12:49.406Z,0.6
2022-10-15T05:14:50.198Z,1.1
2022-10-15T05:16:50.620Z,1.6
2022-10-15T05:18:52.027Z,2.6
2022-10-15T05:20:48.444Z,3.9
2022-10-15T05:22:54.917Z,5.5
2022-10-15T05:24:50.795Z,8.2
2022-10-15T05:26:47.342Z,11
2022-10-15T05:28:51.638Z,12.8
2022-10-15T05:30:51.599Z,16.4
2022-10-15T05:32:51.683Z,15.6
2022-10-15T05:34:48.674Z,19.1
2022-10-15T05:36:52.277Z,25.8
2022-10-15T05:38:47.291Z,27.1
2022-10-15T05:40:47.186Z,30
2022-10-15T05:42:51.367Z,33.1
2022-10-15T05:44:53.909Z,38.5
2022-10-15T05:46:53.647Z,44.7
2022-10-15T05:48:48.332Z,51.9
2022-10-15T05:50:48.588Z,60.3
2022-10-15T05:52:50.724Z,66.7
2022-10-15T05:54:48.364Z,63.4
2022-10-15T05:56:52.141Z,70.1
2022-10-15T05:58:50.766Z,77.5
2022-10-15T06:00:48.265Z,85.6
2022-10-15T06:02:48.718Z,127.7
2022-10-15T06:04:47.740Z,156
2022-10-15T06:06:47.417Z,172.4
2022-10-15T06:08:47.270Z,190.6
2022-10-15T06:10:48.749Z,190.6
2022-10-15T06:12:51.309Z,244.7
2022-10-15T06:14:48.896Z,314.2
2022-10-15T06:16:49.138Z,383.8
2022-10-15T06:20:47.189Z,347.2
2022-10-15T06:22:47.324Z,365
2022-10-15T06:24:47.396Z,468.7
2022-10-15T06:26:47.203Z,468.7
2022-10-15T06:28:47.202Z,347.2
2022-10-15T06:30:47.328Z,284.3
2022-10-15T06:32:50.161Z,270.4
2022-10-15T06:34:47.743Z,298.9
2022-10-15T06:36:54.064Z,383.8
2022-10-15T06:38:51.946Z,445.9
2022-10-15T06:40:48.431Z,544.6
2022-10-15T06:42:48.983Z,699.2
2022-10-15T06:44:48.660Z,812.4
2022-10-15T06:46:51.004Z,897.8
2022-10-15T06:48:48.767Z,1152.9
2022-10-15T06:50:48.106Z,1152.9
2022-10-15T06:52:48.166Z,992.3
2022-10-15T06:54:48.936Z,854.1
2022-10-15T06:58:47.221Z,518
2022-10-15T07:00:54.692Z,518
2022-10-15T07:02:54.156Z,544.6
2022-10-15T07:04:48.601Z,632.7
2022-10-15T07:06:49.964Z,772.8
2022-10-15T07:08:51.825Z,897.8
2022-10-15T07:10:48.681Z,943.9
2022-10-15T07:12:52.283Z,1096.6
2022-10-15T07:14:48.795Z,1212
2022-10-15T07:16:55.121Z,1339.4
2022-10-15T07:18:47.658Z,1556.2
2022-10-15T07:20:50.571Z,1808
2022-10-15T07:22:46.925Z,1998.2
2022-10-15T07:24:47.172Z,1900.7
2022-10-15T07:26:49.248Z,1719.9
2022-10-15T07:28:48.346Z,1636
2022-10-15T07:30:51.682Z,1719.9
2022-10-15T07:32:50.264Z,1636
2022-10-15T07:34:47.226Z,1636
2022-10-15T07:36:47.346Z,1636
2022-10-15T07:38:48.629Z,1480.3
2022-10-15T07:40:48.349Z,1408.1
2022-10-15T07:42:50.806Z,1408.1
2022-10-15T07:44:47.326Z,1480.3
2022-10-15T07:46:54.054Z,1719.9
2022-10-15T07:48:47.350Z,1808
2022-10-15T07:50:50.724Z,1900.7
2022-10-15T07:52:47.000Z,1998.2
2022-10-15T07:54:52.038Z,1998.2
2022-10-15T07:56:51.737Z,1900.7
2022-10-15T07:58:47.166Z,1900.7
2022-10-15T08:00:47.150Z,1900.7
2022-10-15T08:02:47.891Z,2208.3
2022-10-15T08:04:48.570Z,2565.7
2022-10-15T08:06:51.924Z,2835.6
2022-10-15T08:08:51.330Z,2697.3
2022-10-15T08:10:48.334Z,2565.7
2022-10-15T08:12:51.909Z,2835.6
2022-10-15T08:14:47.350Z,3463.4
2022-10-15T08:16:47.498Z,4447.1
2022-10-15T08:18:47.262Z,5710.1
2022-10-15T08:20:48.743Z,6634.2
2022-10-15T08:22:49.568Z,7332
2022-10-15T08:24:47.302Z,8103.1
2022-10-15T08:26:47.812Z,8518.5
2022-10-15T08:28:47.159Z,7707.9
2022-10-15T08:30:47.439Z,7707.9
2022-10-15T08:32:47.298Z,8518.5
2022-10-15T08:36:16.931Z,10404.6
2022-10-15T08:37:55.700Z,12708.2
2022-10-15T08:45:43.219Z,8955.3
2022-10-15T08:45:50.467Z,8955.3
2022-10-15T08:47:45.969Z,23155.8
2022-10-15T08:49:46.846Z,4447.1
2022-10-15T08:53:46.016Z,3641
2022-10-15T08:55:46.705Z,3463.4
2022-10-15T08:57:49.656Z,2981
2022-10-15T08:59:45.823Z,3133.8
2022-10-15T09:01:46.478Z,2440.6
2022-10-15T09:03:46.612Z,2835.6
2022-10-15T09:05:48.748Z,2835.6
2022-10-15T09:07:50.923Z,2321.6
2022-10-15T09:09:45.776Z,2697.3
2022-10-15T09:11:49.925Z,3294.5
2022-10-15T09:13:45.871Z,3463.4
2022-10-15T09:15:46.539Z,3641
2022-10-15T09:17:49.483Z,3641
2022-10-15T09:19:46.534Z,2981
2022-10-15T09:21:49.495Z,2981
2022-10-15T09:23:46.389Z,3133.8
2022-10-15T09:25:46.450Z,3294.5
2022-10-15T09:27:52.659Z,3641
2022-10-15T09:29:52.640Z,3294.5
2022-10-15T09:31:52.815Z,3641
2022-10-15T09:33:45.797Z,3294.5
2022-10-15T09:35:46.711Z,4023.9
2022-10-15T09:37:46.606Z,4230.2
2022-10-15T09:41:46.619Z,3463.4
2022-10-15T09:43:46.855Z,5166.8
2022-10-15T09:45:45.784Z,3827.6
2022-10-15T09:47:46.741Z,3294.5
2022-10-15T09:49:46.530Z,2981
2022-10-15T09:51:46.626Z,2697.3
2022-10-15T09:53:49.473Z,2565.7
2022-10-15T09:55:46.408Z,2835.6
2022-10-15T09:57:46.322Z,2981
2022-10-15T09:59:53.032Z,2981
2022-10-15T10:01:53.156Z,3463.4
2022-10-15T10:03:49.826Z,3641
2022-10-15T10:05:52.994Z,3463.4
2022-10-15T10:07:49.351Z,3827.6
2022-10-15T10:11:46.405Z,5166.8
2022-10-15T10:13:46.342Z,6310.7
2022-10-15T10:15:49.806Z,7332
2022-10-15T10:17:46.210Z,6310.7
2022-10-15T10:19:46.108Z,4230.2
2022-10-15T10:21:49.825Z,3463.4
2022-10-15T10:23:49.973Z,3463.4
2022-10-15T10:25:46.303Z,3463.4
2022-10-15T10:27:47.112Z,4675.1
2022-10-15T10:29:46.659Z,5166.8
2022-10-15T10:31:46.629Z,4675.1
2022-10-15T10:33:46.596Z,4447.1
2022-10-15T10:35:46.690Z,4914.8
2022-10-15T10:37:45.847Z,4675.1
2022-10-15T10:39:46.529Z,4675.1
2022-10-15T10:41:46.391Z,4230.2
2022-10-15T10:43:48.976Z,4675.1
2022-10-15T10:45:48.655Z,5431.7
2022-10-15T10:47:46.643Z,7707.9
2022-10-15T10:49:46.560Z,6974.4
2022-10-15T10:51:46.620Z,9897.1
2022-10-15T10:53:46.495Z,12708.2
2022-10-15T10:55:50.036Z,10404.6
2022-10-15T10:57:45.867Z,9414.4
2022-10-15T10:59:52.283Z,9414.4
2022-10-15T11:01:45.809Z,10938
2022-10-15T11:03:53.065Z,11498.8
2022-10-15T11:05:46.394Z,29732.6
2022-10-15T11:09:46.443Z,12088.4
2022-10-15T11:13:49.850Z,12708.2
2022-10-15T11:15:46.296Z,11498.8
2022-10-15T11:17:46.488Z,14764.8
2022-10-15T11:20:20.943Z,14044.7
2022-10-15T11:21:45.003Z,14044.7
2022-10-15T11:23:46.344Z,14044.7
2022-10-15T11:25:49.790Z,14044.7
2022-10-15T11:27:49.931Z,14044.7
2022-10-15T11:29:46.413Z,18033.7
2022-10-15T11:33:46.046Z,25591.1
2022-10-15T11:35:53.176Z,17154.2
2022-10-15T11:37:49.973Z,17154.2
2022-10-15T11:39:46.085Z,18033.7
2022-10-15T11:41:49.998Z,14044.7
2022-10-15T11:43:45.805Z,31257
2022-10-15T11:45:49.549Z,20952.2
2022-10-15T11:47:46.523Z,36315.5
2022-10-15T11:49:50.017Z,34544.4
2022-10-15T11:51:46.868Z,28282.5
2022-10-15T11:53:46.599Z,23155.8
2022-10-15T11:55:46.562Z,23155.8
2022-10-15T11:59:45.934Z,31257
2022-10-15T12:01:50.049Z,40134.8
2022-10-15T12:03:45.883Z,18958.4
2022-10-15T12:05:45.778Z,76879.9
2022-10-15T12:07:51.538Z,66171.2
2022-10-15T12:09:45.928Z,62944
2022-10-15T12:11:49.431Z,23155.8
2022-10-15T12:13:45.856Z,29732.6
2022-10-15T12:15:46.504Z,59874.1
2022-10-15T12:19:53.051Z,28282.5
2022-10-15T12:21:46.765Z,16317.6
2022-10-15T12:23:46.121Z,80821.6
2022-10-15T12:25:46.490Z,13359.7
2022-10-15T12:27:46.772Z,56954
2022-10-15T12:29:50.069Z,8955.3
2022-10-15T12:31:45.869Z,17154.2
2022-10-15T12:33:49.878Z,80821.6
2022-10-15T12:35:46.452Z,44355.9
2022-10-15T12:37:53.070Z,12708.2
2022-10-15T12:39:52.052Z,59874.1
2022-10-15T12:41:49.770Z,80821.6
2022-10-15T12:43:52.601Z,76879.9
2022-10-15T12:45:46.477Z,76879.9
2022-10-15T12:47:49.498Z,15521.8
2022-10-15T12:49:46.256Z,46630
2022-10-15T12:51:45.902Z,31257
2022-10-15T12:53:53.138Z,76879.9
2022-10-15T12:57:49.933Z,73130.4
2022-10-15T12:59:46.038Z,11498.8
2022-10-15T13:01:45.996Z,14764.8
2022-10-15T13:03:49.937Z,20952.2
2022-10-15T13:05:46.937Z,24343
2022-10-15T13:07:45.877Z,66171.2
2022-10-15T13:09:46.809Z,40134.8
2022-10-15T13:11:52.653Z,6634.2
2022-10-15T13:13:46.548Z,6310.7
2022-10-15T13:15:46.845Z,66171.2
2022-10-15T13:17:46.268Z,12088.4
2022-10-15T13:19:46.725Z,4914.8
2022-10-15T13:21:45.962Z,7332
2022-10-15T13:23:46.772Z,8518.5
2022-10-15T13:25:49.940Z,13359.7
2022-10-15T13:27:46.419Z,56954
2022-10-15T13:29:46.438Z,19930.4
2022-10-15T13:31:46.463Z,36315.5
2022-10-15T13:33:46.577Z,13359.7
2022-10-15T13:35:53.070Z,34544.4
2022-10-15T13:37:46.471Z,29732.6
2022-10-15T13:39:46.629Z,25591.1
2022-10-15T13:41:45.854Z,29732.6
2022-10-15T13:43:46.611Z,34544.4
2022-10-15T13:45:45.971Z,18958.4
2022-10-15T13:47:49.927Z,12708.2
2022-10-15T13:49:45.866Z,5710.1
2022-10-15T13:51:45.979Z,9897.1
2022-10-15T13:53:49.948Z,11498.8
2022-10-15T13:55:49.614Z,6002.9
2022-10-15T13:59:46.809Z,6310.7
2022-10-15T14:01:46.623Z,6634.2
2022-10-15T14:03:45.960Z,6974.4
2022-10-15T14:05:49.934Z,6974.4
2022-10-15T14:07:49.982Z,6310.7
2022-10-15T14:09:45.908Z,8103.1
2022-10-15T14:11:45.901Z,6634.2
2022-10-15T14:13:52.935Z,4914.8
2022-10-15T14:15:46.595Z,4230.2
2022-10-15T14:17:45.914Z,3463.4
2022-10-15T14:19:47.228Z,2981
2022-10-15T14:21:49.955Z,3294.5
2022-10-15T14:23:49.861Z,3641
2022-10-15T14:25:45.973Z,4023.9
2022-10-15T14:27:46.390Z,4230.2
2022-10-15T14:31:45.918Z,4230.2
2022-10-15T14:33:46.519Z,3641
2022-10-15T14:35:49.893Z,2981
2022-10-15T14:37:49.973Z,2565.7
2022-10-15T14:39:46.430Z,1900.7
2022-10-15T14:41:46.811Z,1719.9
2022-10-15T14:43:49.984Z,1480.3
2022-10-15T14:45:45.964Z,1408.1
2022-10-15T14:47:49.516Z,1480.3
2022-10-15T14:49:46.700Z,1556.2
2022-10-15T14:51:45.850Z,1480.3
2022-10-15T14:53:46.041Z,1808
2022-10-15T14:55:46.462Z,2565.7
2022-10-15T14:57:46.762Z,3133.8
2022-10-15T14:59:46.422Z,2981
2022-10-15T15:01:55.047Z,3463.4
2022-10-15T15:03:46.658Z,3463.4
2022-10-15T15:05:53.098Z,3641
2022-10-15T15:07:46.437Z,3463.4
2022-10-15T15:13:18.107Z,2100.6
2022-10-15T15:17:47.666Z,1719.9
2022-10-15T15:21:08.820Z,1408.1
2022-10-15T15:23:10.157Z,1480.3
2022-10-15T15:27:07.930Z,1408.1
2022-10-15T15:29:11.242Z,1408.1
2022-10-15T15:31:07.442Z,1339.4
2022-10-15T15:33:15.068Z,1212
2022-10-15T15:35:07.237Z,1152.9
2022-10-15T15:37:14.119Z,1043.1
2022-10-15T15:39:07.754Z,943.9
2022-10-15T15:41:07.433Z,897.8
2022-10-15T15:43:07.739Z,854.1
2022-10-15T15:45:10.188Z,854.1
2022-10-15T15:47:07.527Z,854.1
2022-10-15T15:49:07.568Z,812.4
2022-10-15T15:51:12.002Z,735.1
2022-10-15T15:53:07.318Z,632.7
2022-10-15T15:55:07.710Z,518
2022-10-15T15:57:12.335Z,468.7
2022-10-15T15:59:07.349Z,403.4
2022-10-15T16:01:07.360Z,347.2
2022-10-15T16:03:10.658Z,298.9
2022-10-15T16:05:14.030Z,257.2
2022-10-15T16:07:08.938Z,232.8
2022-10-15T16:09:07.396Z,210.6
2022-10-15T16:11:10.551Z,190.6
2022-10-15T16:13:07.037Z,181.3
2022-10-15T16:15:08.976Z,172.4
2022-10-15T16:17:07.746Z,148.4
2022-10-15T16:19:07.499Z,127.7
2022-10-15T16:21:07.310Z,104.6
2022-10-15T16:23:07.511Z,90
2022-10-15T16:25:07.260Z,77.5
2022-10-15T16:27:10.639Z,66.7
2022-10-15T16:29:07.698Z,54.6
2022-10-15T16:31:07.422Z,44.7
2022-10-15T16:33:10.635Z,34.8
2022-10-15T16:35:10.888Z,27.1
2022-10-15T16:37:04.846Z,22.2
2022-10-15T16:39:07.617Z,16.4
2022-10-15T16:41:07.694Z,12.2
2022-10-15T16:43:10.741Z,8.2
2022-10-15T16:45:10.949Z,5.5
2022-10-15T16:47:07.535Z,3.3
2022-10-15T16:49:07.671Z,2.1
2022-10-15T16:51:10.104Z,1.3
2022-10-15T16:53:07.333Z,0.8
2022-10-15T16:55:07.522Z,0.5
2022-10-15T16:57:07.401Z,0.4
2022-10-15T16:59:10.861Z,0.3
2022-10-15T17:01:07.286Z,0.2
2022-10-15T17:03:10.949Z,0.2
2022-10-15T17:05:07.587Z,0.1
2022-10-15T17:07:13.316Z,0
2022-10-15T17:09:10.830Z,0
2022-10-15T17:11:07.831Z,0
2022-10-15T17:13:07.343Z,0
2022-10-15T17:15:07.314Z,1
2022-10-15T17:17:10.936Z,1
2022-10-15T17:19:10.944Z,0.2
2022-10-15T17:23:07.469Z,1
2022-10-15T17:25:10.448Z,1
2022-10-15T17:27:07.712Z,1
2022-10-15T17:29:07.423Z,1
2022-10-15T17:31:13.842Z,1
2022-10-15T17:33:07.372Z,1
2022-10-15T17:35:10.620Z,1
2022-10-15T17:37:07.554Z,1
2022-10-15T17:39:10.683Z,1
2022-10-15T17:41:07.286Z,1
2022-10-15T17:43:07.387Z,1
2022-10-15T17:45:07.457Z,1
2022-10-15T17:47:07.667Z,1
2022-10-15T17:49:09.170Z,1
2022-10-15T17:51:07.472Z,1
2022-10-15T17:53:10.826Z,1
2022-10-15T17:55:11.103Z,1
2022-10-15T17:57:14.209Z,1
2022-10-15T17:59:11.174Z,1
2022-10-15T18:01:07.669Z,1
2022-10-15T18:03:07.450Z,1
2022-10-15T18:05:11.066Z,1
2022-10-15T18:07:07.931Z,1
2022-10-15T18:09:10.505Z,1
2022-10-15T18:11:07.461Z,1
2022-10-15T18:13:07.355Z,1
2022-10-15T18:15:07.578Z,1
2022-10-15T18:17:10.226Z,1
2022-10-15T18:19:07.337Z,1
2022-10-15T18:21:07.505Z,1
2022-10-15T18:23:10.471Z,1
2022-10-15T18:25:07.361Z,1
2022-10-15T18:27:07.492Z,1
2022-10-15T18:29:07.357Z,1
2022-10-15T18:31:10.821Z,1
2022-10-15T18:33:14.127Z,1
2022-10-15T18:35:10.717Z,1
2022-10-15T18:37:07.383Z,1
2022-10-15T18:39:07.644Z,1
2022-10-15T18:41:10.555Z,1
2022-10-15T18:43:07.440Z,1
2022-10-15T18:45:07.616Z,1
2022-10-15T18:47:13.003Z,1
2022-10-15T18:49:07.709Z,1
2022-10-15T18:51:13.977Z,1
2022-10-15T18:53:14.137Z,1
2022-10-15T18:55:07.448Z,1
2022-10-15T18:57:11.163Z,1
2022-10-15T18:59:07.431Z,1
2022-10-15T19:01:07.616Z,1
2022-10-15T19:03:10.802Z,1
2022-10-15T19:05:07.510Z,1
2022-10-15T19:07:07.488Z,1
2022-10-15T19:09:07.440Z,1
2022-10-15T19:11:07.564Z,1
2022-10-15T19:13:10.872Z,1
2022-10-15T19:15:07.660Z,1
2022-10-15T19:17:07.755Z,1
2022-10-15T19:19:07.398Z,1
2022-10-15T19:21:07.375Z,1
2022-10-15T19:23:07.501Z,1
2022-10-15T19:25:07.840Z,1
2022-10-15T19:27:13.107Z,1
2022-10-15T19:29:07.425Z,1
2022-10-15T19:31:07.502Z,1
2022-10-15T19:33:07.395Z,1
2022-10-15T19:35:07.512Z,1
2022-10-15T19:39:07.436Z,1
2022-10-15T19:43:07.831Z,1
2022-10-15T19:45:07.435Z,1
2022-10-15T19:47:07.532Z,1
2022-10-15T19:49:11.054Z,1
2022-10-15T19:51:07.711Z,1
2022-10-15T19:53:09.940Z,1
2022-10-15T19:55:07.361Z,1
2022-10-15T19:57:07.510Z,1
2022-10-15T19:59:07.399Z,1
2022-10-15T20:01:07.630Z,1
2022-10-15T20:03:11.900Z,1
2022-10-15T20:05:10.827Z,1
2022-10-15T20:07:10.666Z,1
2022-10-15T20:09:14.278Z,1
2022-10-15T20:11:14.121Z,1
2022-10-15T20:13:10.648Z,1
2022-10-15T20:15:10.829Z,1
2022-10-15T20:17:07.846Z,1
2022-10-15T20:19:07.779Z,1
2022-10-15T20:21:07.633Z,1
2022-10-15T20:23:13.681Z,1
2022-10-15T20:25:10.717Z,1
2022-10-15T20:27:11.124Z,1
2022-10-15T20:29:07.727Z,1
2022-10-15T20:31:07.487Z,1
2022-10-15T20:33:11.011Z,1
2022-10-15T20:35:07.375Z,1
2022-10-15T20:37:07.995Z,1
2022-10-15T20:39:07.320Z,1
2022-10-15T20:41:07.594Z,1
2022-10-15T20:43:07.504Z,1
2022-10-15T20:45:07.469Z,1
2022-10-15T20:51:10.957Z,1
2022-10-15T20:53:07.925Z,1
2022-10-15T20:55:07.483Z,1
2022-10-15T20:57:07.806Z,1
2022-10-15T20:59:13.234Z,1
2022-10-15T21:01:07.571Z,1
2022-10-15T21:03:07.469Z,1
2022-10-15T21:05:12.508Z,1
2022-10-15T21:07:07.487Z,1
2022-10-15T21:09:07.430Z,1
2022-10-15T21:11:07.846Z,1
2022-10-15T21:13:19.118Z,1
2022-10-15T21:15:07.409Z,1
2022-10-15T21:17:07.626Z,1
2022-10-15T21:19:11.105Z,1
2022-10-15T21:21:11.063Z,1
2022-10-15T21:25:07.591Z,1
2022-10-15T21:27:07.546Z,1
2022-10-15T21:29:07.729Z,1
2022-10-15T21:31:11.951Z,1
2022-10-15T21:33:07.409Z,1
2022-10-15T21:35:07.827Z,1
2022-10-15T21:37:15.707Z,1
2022-10-15T21:39:14.164Z,1
2022-10-15T21:41:07.609Z,1
2022-10-15T21:43:07.631Z,1
2022-10-15T21:48:45.928Z,1
2022-10-15T21:50:49.090Z,1
2022-10-15T21:52:52.478Z,1
2022-10-15T21:54:46.437Z,1
2022-10-15T21:58:49.822Z,1
2022-10-15T22:00:55.557Z,1
2022-10-15T22:02:46.351Z,1
2022-10-15T22:04:52.853Z,1
2022-10-15T22:06:49.050Z,1
2022-10-15T22:08:46.346Z,1
2022-10-15T22:10:46.200Z,1
2022-10-15T22:12:48.870Z,1
2022-10-15T22:14:50.661Z,1
2022-10-15T22:16:45.642Z,1
2022-10-15T22:18:46.288Z,1
2022-10-15T22:20:53.002Z,1
2022-10-15T22:22:46.261Z,1
2022-10-15T22:24:52.221Z,1
2022-10-15T22:26:48.239Z,1
2022-10-15T22:28:53.046Z,1
2022-10-15T22:30:46.358Z,1
2022-10-15T22:32:52.868Z,1
2022-10-15T22:34:45.698Z,1
2022-10-15T22:36:46.339Z,1
2022-10-15T22:38:49.122Z,1
2022-10-15T22:40:48.174Z,1
2022-10-15T22:42:53.017Z,1
2022-10-15T22:44:49.704Z,1
2022-10-15T22:46:52.456Z,1
2022-10-15T22:48:55.316Z,1
2022-10-15T22:50:52.424Z,1
2022-10-15T22:52:52.349Z,1
2022-10-15T22:54:49.057Z,1
2022-10-15T22:56:55.356Z,1
2022-10-15T22:58:46.187Z,1
2022-10-15T23:02:52.927Z,1
2022-10-15T23:04:55.691Z,1
2022-10-15T23:06:45.751Z,1
2022-10-15T23:08:52.966Z,1
2022-10-15T23:10:49.679Z,1
2022-10-15T23:12:49.485Z,1
2022-10-15T23:14:49.863Z,1
2022-10-15T23:16:49.303Z,1
2022-10-15T23:18:45.795Z,1
2022-10-15T23:20:47.585Z,1
2022-10-15T23:22:48.764Z,1
2022-10-15T23:24:49.279Z,1
2022-10-15T23:26:46.844Z,1
2022-10-15T23:28:46.460Z,1
2022-10-15T23:30:46.284Z,1
2022-10-15T23:32:46.247Z,1
2022-10-15T23:34:49.679Z,1
2022-10-15T23:36:46.461Z,1
2022-10-15T23:38:46.215Z,1
2022-10-15T23:42:49.080Z,1
2022-10-15T23:44:49.864Z,1
2022-10-15T23:46:46.484Z,1
2022-10-15T23:48:46.119Z,1
2022-10-15T23:50:46.696Z,1
2022-10-15T23:52:46.359Z,1
2022-10-15T23:54:48.652Z,1
2022-10-15T23:56:45.958Z,1
2022-10-15T23:58:52.191Z,1
